ETHF METAR and TAF | Updated Today

ETHF METAR

Fritzlar Airport

Observation time: 17 min. ago

ETHF 291220Z 30007KT 9999 VCSH FEW032 SCT055 BKN075 13/05 Q1012 BLU

Need help? Read our tutorial on how to read METARs or read the parsed version below.

Fritzlar Airport (ETHF) METAR

  • Weather conditions on Sun, 29 May 2022 12:20:00 +0000 (17 min. ago):
  • Present conditions: In the vicinity, showers of
  • Clouds: A few at 975 meters; scattered at 1676 meters; broken sky at 2286 meters
  • Visibility: Greater than 10 km
  • Wind: 300 degrees at 7 knots
  • Temperature: 13 celsius
  • Dew point: 5 celsius
  • Pressure: 1012 millibars
  • Remarks: None


Useful to know...

  • Codes: ETHF/FRZ
  • Airport elevation: 1345ft
  • Municipality: Fritzlar
  • Country: Germany
  • Continent: Europe